Schaerbeek, Belgium
Current Conditions -  °F | °C
As of 9:50 AM on Saturday 01 Nov 2014 (Local Time) from EBBR Reporting Station
Clear Clear  
Wind Chill: 61°   Ceiling: Unl
Heat Index: 61°   Visibility: 6mi
Dew Point: 50°   Wind: 13mph
Humidity: 68%   Direction: 200°SSW
Pressure: 30.09"   Gusts: NA
Location:  50.86°N, 4.39°E
Report Text: EBBR 010850Z 20011KT CAVOK 16/10 Q1019 NOSIG
Loading
Personal Weather Stations






























Interactive Weather Map New forecast layout! Learn more

10-Day Weather Forecast

Advertisements
Track Severe Weather on mobile